Time;durP1;ratioP1;P1;durP2;ratioP2;P2;SDS_P1;SDS_P2;PMS_P1;PMS_P2;Temp;Humidity;BMP_temperature;BMP_pressure;BME280_temperature;BME280_humidity;BME280_pressure;Samples;Min_cycle;Max_cycle;Signal;HPM_P1;HPM_P2
2021/03/18 00:02:32;;;;;;;1.50;0.60;;;17.70;61.10;;;;;;10468652;28;20041;-59
2021/03/18 00:07:34;;;;;;;0.73;0.43;;;17.70;61.00;;;;;;10501227;28;20025;-59
2021/03/18 00:12:35;;;;;;;0.70;0.30;;;17.70;60.90;;;;;;10501241;28;20473;-59
2021/03/18 00:17:36;;;;;;;1.58;0.60;;;17.70;60.80;;;;;;10500736;28;20166;-60
2021/03/18 00:22:42;;;;;;;1.30;0.50;;;17.70;60.80;;;;;;10500718;28;20033;-60
2021/03/18 00:27:46;;;;;;;1.38;0.57;;;17.70;60.70;;;;;;10478333;28;20025;-60
2021/03/18 00:32:48;;;;;;;2.65;0.73;;;17.70;60.70;;;;;;10485836;28;20028;-59
2021/03/18 00:37:52;;;;;;;0.55;0.30;;;17.70;60.70;;;;;;10458704;28;20374;-59
2021/03/18 00:43:09;;;;;;;0.93;0.50;;;17.70;60.50;;;;;;10458157;28;20470;-59
2021/03/18 00:48:12;;;;;;;0.77;0.30;;;17.70;60.40;;;;;;10456902;28;20055;-59
2021/03/18 00:53:23;;;;;;;1.50;0.35;;;17.70;60.40;;;;;;10440495;28;20025;-59
2021/03/18 00:58:24;;;;;;;1.58;0.60;;;17.80;60.30;;;;;;10474093;28;20044;-59
2021/03/18 01:03:28;;;;;;;0.55;0.40;;;17.70;60.20;;;;;;10498825;28;20037;-58
2021/03/18 01:08:30;;;;;;;1.77;0.68;;;17.70;60.20;;;;;;10498852;28;20477;-59
2021/03/18 01:13:31;;;;;;;1.42;0.50;;;17.70;60.00;;;;;;10462387;28;20061;-59
2021/03/18 01:18:42;;;;;;;2.28;0.63;;;17.80;60.00;;;;;;10455547;28;20557;-59
2021/03/18 01:23:44;;;;;;;0.50;0.30;;;17.80;60.50;;;;;;10493020;28;20036;-59
2021/03/18 01:28:45;;;;;;;0.60;0.30;;;17.80;59.90;;;;;;10497564;28;20024;-59
2021/03/18 01:33:46;;;;;;;1.88;0.50;;;17.70;60.40;;;;;;10484587;28;20040;-58
2021/03/18 01:38:47;;;;;;;1.42;0.30;;;17.80;59.80;;;;;;10456155;28;20381;-58
2021/03/18 01:43:49;;;;;;;1.20;0.40;;;17.80;59.70;;;;;;10484759;28;20025;-59
2021/03/18 01:48:50;;;;;;;0.50;0.40;;;17.80;59.60;;;;;;10457508;28;20338;-59
2021/03/18 01:53:51;;;;;;;1.25;0.60;;;17.80;59.50;;;;;;10454731;28;20115;-59
2021/03/18 01:58:51;;;;;;;0.90;0.30;;;17.80;59.40;;;;;;10454857;28;20108;-59
2021/03/18 02:03:52;;;;;;;0.73;0.40;;;17.90;59.40;;;;;;10455719;28;20367;-58
2021/03/18 02:08:53;;;;;;;1.05;0.40;;;17.80;59.40;;;;;;10454153;28;20029;-58
2021/03/18 02:13:53;;;;;;;1.00;0.40;;;17.80;59.30;;;;;;10479521;28;20467;-59
2021/03/18 02:19:03;;;;;;;0.98;0.40;;;17.80;59.40;;;;;;10491611;28;20462;-59
2021/03/18 02:24:20;;;;;;;0.80;0.40;;;17.80;59.30;;;;;;10454096;28;20123;-59
2021/03/18 02:29:58;;;;;;;0.80;0.43;;;17.80;59.30;;;;;;10454342;28;20033;-58
2021/03/18 02:35:27;;;;;;;2.15;0.57;;;17.70;59.20;;;;;;10457561;28;20036;-59
2021/03/18 02:40:34;;;;;;;2.63;0.60;;;17.70;59.20;;;;;;10463793;28;20033;-58
2021/03/18 02:45:41;;;;;;;1.15;0.40;;;17.70;59.10;;;;;;10504580;28;20032;-59
2021/03/18 02:50:42;;;;;;;1.17;0.30;;;17.70;59.10;;;;;;10502045;28;20119;-58
2021/03/18 02:55:47;;;;;;;0.57;0.30;;;17.70;59.10;;;;;;10502906;28;20123;-59
2021/03/18 03:00:51;;;;;;;0.80;0.45;;;17.70;59.10;;;;;;10482319;28;20029;-59
2021/03/18 03:05:54;;;;;;;2.17;0.60;;;17.70;59.00;;;;;;10462312;28;20043;-59
2021/03/18 03:11:02;;;;;;;1.27;0.40;;;17.70;59.00;;;;;;10485368;28;20139;-58
2021/03/18 03:16:07;;;;;;;0.77;0.30;;;17.70;59.00;;;;;;10502013;28;20139;-59
2021/03/18 03:21:10;;;;;;;0.75;0.32;;;17.70;59.00;;;;;;10479717;28;20041;-59
2021/03/18 03:26:14;;;;;;;0.75;0.30;;;17.70;58.90;;;;;;10461305;28;20091;-60
2021/03/18 03:31:15;;;;;;;0.75;0.40;;;17.70;58.80;;;;;;10465264;28;20032;-59
2021/03/18 03:36:17;;;;;;;0.98;0.50;;;17.70;58.80;;;;;;10468887;28;20040;-59
2021/03/18 03:41:18;;;;;;;0.70;0.30;;;17.70;58.80;;;;;;10492776;28;20519;-59
2021/03/18 03:46:19;;;;;;;0.50;0.40;;;17.70;58.80;;;;;;10501609;28;20103;-59
2021/03/18 03:51:20;;;;;;;1.27;0.55;;;17.70;58.80;;;;;;10501299;28;20086;-59
2021/03/18 03:56:28;;;;;;;1.38;0.73;;;17.70;58.70;;;;;;10500759;28;20040;-59
2021/03/18 04:01:38;;;;;;;0.32;0.30;;;17.70;58.70;;;;;;10500445;28;20032;-58
2021/03/18 04:06:40;;;;;;;2.10;0.50;;;17.70;58.60;;;;;;10500073;28;20056;-58
2021/03/18 04:11:42;;;;;;;1.23;0.45;;;17.70;58.60;;;;;;10460600;28;20036;-59
2021/03/18 04:16:44;;;;;;;0.50;0.30;;;17.70;58.50;;;;;;10458135;28;20053;-59
2021/03/18 04:21:50;;;;;;;0.45;0.22;;;17.70;58.50;;;;;;10478289;28;20033;-59
2021/03/18 04:26:53;;;;;;;0.52;0.30;;;17.70;58.50;;;;;;10499603;28;20373;-59
2021/03/18 04:31:56;;;;;;;1.30;0.43;;;17.70;58.40;;;;;;10499460;28;20070;-58
2021/03/18 04:36:57;;;;;;;1.10;0.32;;;17.70;58.40;;;;;;10461164;28;20029;-60
2021/03/18 04:41:58;;;;;;;0.50;0.30;;;17.70;58.40;;;;;;10473262;28;20064;-59
2021/03/18 04:47:01;;;;;;;1.70;0.60;;;17.70;58.30;;;;;;10456916;28;20124;-59
2021/03/18 04:52:02;;;;;;;0.63;0.28;;;17.70;58.30;;;;;;10458014;28;20428;-59
2021/03/18 04:57:03;;;;;;;0.68;0.30;;;17.70;58.20;;;;;;10487296;28;20040;-59
2021/03/18 05:02:06;;;;;;;1.13;0.45;;;17.70;58.20;;;;;;10499214;28;20447;-59
2021/03/18 05:07:08;;;;;;;0.43;0.40;;;17.70;58.10;;;;;;10493964;28;20402;-59
2021/03/18 05:12:10;;;;;;;0.68;0.40;;;17.70;58.10;;;;;;10464774;28;20037;-58
2021/03/18 05:17:10;;;;;;;0.73;0.50;;;17.70;58.10;;;;;;10486663;28;20045;-59
2021/03/18 05:22:11;;;;;;;0.43;0.25;;;17.70;58.10;;;;;;10457036;28;20029;-59
2021/03/18 05:27:12;;;;;;;0.55;0.40;;;17.70;58.00;;;;;;10455440;28;20049;-60
2021/03/18 05:32:13;;;;;;;0.30;0.30;;;17.70;58.00;;;;;;10477165;28;20031;-59
2021/03/18 05:37:14;;;;;;;1.20;0.47;;;17.70;58.00;;;;;;10472559;28;20481;-59
2021/03/18 05:42:17;;;;;;;0.80;0.40;;;17.70;58.00;;;;;;10471796;28;20037;-57
2021/03/18 05:47:18;;;;;;;0.45;0.32;;;17.70;58.00;;;;;;10474279;28;20557;-59
2021/03/18 05:52:20;;;;;;;0.93;0.55;;;17.70;57.90;;;;;;10476061;28;20061;-59
2021/03/18 05:57:21;;;;;;;0.63;0.30;;;17.70;57.90;;;;;;10485561;28;20492;-58
2021/03/18 06:02:22;;;;;;;0.82;0.40;;;17.70;57.90;;;;;;10495928;28;20097;-58
2021/03/18 06:07:23;;;;;;;0.43;0.30;;;17.70;57.90;;;;;;10472196;28;20434;-60
2021/03/18 06:12:24;;;;;;;0.30;0.20;;;17.70;57.80;;;;;;10476254;28;20040;-59
2021/03/18 06:17:31;;;;;;;1.15;0.50;;;17.70;57.80;;;;;;10456738;28;20048;-59
2021/03/18 06:22:35;;;;;;;0.88;0.50;;;17.70;57.70;;;;;;10468164;28;20029;-60
2021/03/18 06:27:35;;;;;;;2.33;0.35;;;17.70;58.00;;;;;;10455518;28;20108;-59
2021/03/18 06:32:36;;;;;;;6.82;0.90;;;17.80;58.50;;;;;;10454645;28;20086;-59
2021/03/18 06:37:44;;;;;;;1.75;0.40;;;17.80;59.30;;;;;;10454918;28;20120;-58
2021/03/18 06:43:00;;;;;;;3.97;1.27;;;17.80;59.70;;;;;;10454384;28;20490;-59
2021/03/18 06:48:15;;;;;;;1.67;0.50;;;17.80;59.70;;;;;;10448921;28;20041;-59
2021/03/18 06:53:30;;;;;;;5.55;0.73;;;17.90;60.50;;;;;;10454314;28;20102;-60
2021/03/18 06:58:31;;;;;;;3.83;0.63;;;17.80;60.10;;;;;;10452809;28;20052;-58
2021/03/18 07:03:34;;;;;;;3.40;1.02;;;17.80;59.70;;;;;;10441729;28;20486;-59
2021/03/18 07:08:40;;;;;;;8.23;1.27;;;17.80;59.30;;;;;;10454512;28;20028;-60
2021/03/18 07:13:44;;;;;;;9.38;1.30;;;17.70;58.80;;;;;;10461472;28;20029;-59
2021/03/18 07:18:59;;;;;;;5.38;1.30;;;17.70;58.70;;;;;;10471026;28;20053;-58
2021/03/18 07:24:01;;;;;;;5.00;1.27;;;17.80;58.60;;;;;;10476579;28;20059;-59
2021/03/18 07:29:21;;;;;;;5.32;1.05;;;17.70;58.60;;;;;;10460992;28;20035;-58
2021/03/18 07:34:23;;;;;;;5.70;1.52;;;17.70;58.40;;;;;;10440442;28;20021;-59
2021/03/18 07:39:24;;;;;;;4.35;0.98;;;17.70;58.40;;;;;;10452573;28;20055;-59
2021/03/18 07:44:27;;;;;;;5.00;0.90;;;17.60;58.30;;;;;;10448692;28;20037;-59
2021/03/18 07:49:42;;;;;;;3.97;1.25;;;17.60;58.50;;;;;;10434800;28;20390;-59
2021/03/18 07:54:49;;;;;;;10.30;1.55;;;17.60;58.50;;;;;;10453448;28;20029;-59
2021/03/18 07:59:50;;;;;;;2.42;0.80;;;17.60;58.40;;;;;;10451749;28;20123;-58
2021/03/18 08:04:54;;;;;;;1.80;0.77;;;17.60;58.30;;;;;;10451496;28;20100;-59
2021/03/18 08:09:55;;;;;;;5.28;0.98;;;17.60;58.40;;;;;;10452951;28;20366;-59
2021/03/18 08:15:40;;;;;;;3.10;0.73;;;17.60;58.30;;;;;;10452586;28;20056;-59
2021/03/18 08:20:41;;;;;;;3.33;0.85;;;17.60;58.20;;;;;;10448162;28;20064;-58
2021/03/18 08:25:42;;;;;;;4.50;1.02;;;17.60;58.20;;;;;;10452246;28;20040;-58
2021/03/18 08:30:43;;;;;;;2.25;0.90;;;17.60;58.70;;;;;;10451801;28;20033;-58
2021/03/18 08:35:44;;;;;;;2.78;0.80;;;17.60;58.20;;;;;;10441852;28;20029;-59
2021/03/18 08:41:00;;;;;;;6.43;1.00;;;17.60;58.20;;;;;;10451844;28;20090;-60
2021/03/18 08:46:00;;;;;;;2.42;0.80;;;17.60;58.10;;;;;;10451418;28;20488;-59
2021/03/18 08:51:03;;;;;;;3.85;1.13;;;17.60;58.20;;;;;;10451409;28;20039;-59
2021/03/18 08:56:06;;;;;;;3.90;0.82;;;17.60;58.20;;;;;;10450837;28;20083;-60
2021/03/18 09:01:15;;;;;;;3.08;0.90;;;17.60;58.30;;;;;;10453361;28;20017;-59
2021/03/18 09:06:18;;;;;;;2.20;0.55;;;17.60;58.10;;;;;;10457369;28;20464;-58
2021/03/18 09:11:24;;;;;;;3.42;1.00;;;17.60;58.10;;;;;;10457183;28;20033;-60
2021/03/18 09:16:25;;;;;;;2.78;0.80;;;17.60;58.70;;;;;;10456866;28;20431;-61
2021/03/18 09:21:35;;;;;;;5.18;0.90;;;17.50;58.20;;;;;;10456874;28;20087;-60
2021/03/18 09:26:36;;;;;;;;;;;17.50;58.30;;;;;;10456968;28;20032;-60
2021/03/18 09:31:37;;;;;;;2.42;0.52;;;17.50;58.30;;;;;;10456571;28;19908;-60
2021/03/18 09:36:37;;;;;;;3.15;0.70;;;17.60;58.40;;;;;;10456356;28;20588;-60
2021/03/18 09:41:48;;;;;;;3.65;0.77;;;17.60;58.30;;;;;;10456120;28;20033;-60
2021/03/18 09:46:52;;;;;;;2.72;0.77;;;17.60;58.20;;;;;;10455495;28;20052;-60
2021/03/18 09:51:53;;;;;;;1.90;0.50;;;17.60;58.40;;;;;;10470554;28;20032;-59
2021/03/18 09:57:00;;;;;;;2.72;0.95;;;17.60;58.40;;;;;;10495908;28;20553;-59
2021/03/18 10:02:02;;;;;;;3.20;0.98;;;17.60;58.40;;;;;;10497331;28;20043;-60
2021/03/18 10:07:02;;;;;;;2.47;1.05;;;17.50;58.50;;;;;;10493121;28;20043;-60
2021/03/18 10:12:07;;;;;;;1.73;0.77;;;17.50;58.50;;;;;;10455238;28;20035;-59
2021/03/18 10:17:26;;;;;;;2.15;1.02;;;17.50;58.50;;;;;;10453907;28;20064;-60
2021/03/18 10:22:40;;;;;;;2.83;0.87;;;17.50;58.60;;;;;;10453843;28;20507;-59
2021/03/18 10:27:48;;;;;;;1.50;0.70;;;17.50;58.60;;;;;;10454132;28;20021;-59
2021/03/18 10:33:09;;;;;;;2.17;0.70;;;17.50;58.60;;;;;;10454825;28;20417;-60
2021/03/18 10:38:15;;;;;;;1.45;0.70;;;17.50;58.50;;;;;;10438493;28;20040;-58
2021/03/18 10:43:34;;;;;;;1.42;0.50;;;17.50;58.60;;;;;;10441942;28;20048;-59
2021/03/18 10:48:37;;;;;;;2.43;0.80;;;17.50;58.40;;;;;;10446303;28;20067;-58
2021/03/18 10:53:42;;;;;;;1.77;0.60;;;17.50;58.30;;;;;;10447527;28;20036;-60
2021/03/18 10:58:43;;;;;;;2.05;0.85;;;17.50;58.30;;;;;;10454203;28;20469;-59
2021/03/18 11:03:44;;;;;;;0.85;0.50;;;17.50;58.30;;;;;;10457704;28;20037;-60
2021/03/18 11:08:56;;;;;;;1.45;0.68;;;17.50;58.30;;;;;;10461763;28;20405;-59
2021/03/18 11:14:08;;;;;;;3.47;1.23;;;17.60;58.30;;;;;;10441125;28;20033;-59
2021/03/18 11:19:12;;;;;;;2.80;0.52;;;17.60;58.30;;;;;;10439898;28;20084;-58
2021/03/18 11:24:20;;;;;;;1.67;0.57;;;17.60;58.20;;;;;;10457381;28;20039;-57
2021/03/18 11:29:26;;;;;;;1.48;0.70;;;17.60;58.20;;;;;;10459537;28;20041;-58
2021/03/18 11:34:36;;;;;;;3.13;0.82;;;17.60;58.30;;;;;;10448419;28;20119;-59
2021/03/18 11:39:37;;;;;;;2.60;0.73;;;17.60;58.40;;;;;;10451565;28;20555;-58
2021/03/18 11:44:38;;;;;;;1.42;0.55;;;17.50;58.20;;;;;;10446165;28;20048;-58
2021/03/18 11:49:42;;;;;;;2.70;0.73;;;17.50;58.40;;;;;;10451023;28;20031;-59
2021/03/18 11:54:42;;;;;;;1.00;0.55;;;17.50;58.60;;;;;;10450690;28;20382;-59
2021/03/18 11:59:44;;;;;;;1.52;0.57;;;17.60;58.80;;;;;;10456959;28;20108;-60
2021/03/18 12:04:45;;;;;;;1.77;0.75;;;17.60;58.80;;;;;;10458591;28;20029;-59
2021/03/18 12:09:45;;;;;;;1.55;0.60;;;17.50;59.00;;;;;;10458494;28;20481;-61
2021/03/18 12:14:46;;;;;;;3.53;0.70;;;17.60;58.50;;;;;;10444573;28;20028;-59
2021/03/18 12:19:47;;;;;;;1.15;0.50;;;17.60;58.40;;;;;;10451732;28;20393;-58
2021/03/18 12:24:48;;;;;;;2.22;0.57;;;17.60;58.50;;;;;;10446584;28;20808;-60
2021/03/18 12:29:48;;;;;;;2.63;0.65;;;17.60;58.50;;;;;;10434048;28;20123;-59
2021/03/18 12:34:49;;;;;;;1.27;0.47;;;17.60;58.60;;;;;;10451882;28;20128;-58
2021/03/18 12:39:50;;;;;;;3.63;0.85;;;17.60;58.60;;;;;;10452181;28;20499;-59
2021/03/18 12:44:50;;;;;;;2.90;0.70;;;17.60;58.60;;;;;;10451468;28;20163;-58
2021/03/18 12:49:51;;;;;;;1.17;0.60;;;17.60;58.80;;;;;;10451716;28;20020;-59
2021/03/18 12:54:52;;;;;;;2.53;0.98;;;17.60;58.70;;;;;;10451440;28;20081;-59
2021/03/18 12:59:54;;;;;;;2.70;0.70;;;17.60;58.70;;;;;;10450685;28;20039;-59
2021/03/18 13:04:55;;;;;;;1.60;0.80;;;17.60;58.70;;;;;;10450838;28;20033;-59
2021/03/18 13:09:56;;;;;;;1.98;0.68;;;17.60;58.70;;;;;;10450470;28;20064;-58
2021/03/18 13:14:56;;;;;;;1.80;0.55;;;17.60;58.70;;;;;;10450039;28;20060;-59
2021/03/18 13:19:57;;;;;;;0.80;0.50;;;17.60;58.60;;;;;;10449487;28;20496;-59
2021/03/18 13:24:58;;;;;;;2.10;0.50;;;17.60;58.60;;;;;;10449744;28;20040;-59
2021/03/18 13:29:59;;;;;;;2.30;0.90;;;17.60;59.20;;;;;;10449621;28;20473;-59
2021/03/18 13:35:00;;;;;;;1.50;0.45;;;17.60;58.70;;;;;;10449662;28;20033;-59
2021/03/18 13:40:01;;;;;;;2.83;0.80;;;17.60;58.80;;;;;;10449256;28;20031;-60
2021/03/18 13:45:05;;;;;;;0.93;0.40;;;17.60;58.90;;;;;;10449348;28;20041;-59
2021/03/18 13:50:08;;;;;;;0.90;0.40;;;17.50;59.00;;;;;;10450527;28;20029;-60
2021/03/18 13:55:09;;;;;;;0.60;0.40;;;17.50;59.00;;;;;;10458080;28;20377;-60
2021/03/18 14:00:11;;;;;;;2.38;0.55;;;17.50;59.10;;;;;;10447583;28;20451;-59
2021/03/18 14:05:12;;;;;;;1.17;0.50;;;17.50;59.00;;;;;;10466995;28;20035;-59
2021/03/18 14:10:14;;;;;;;1.13;0.40;;;17.50;59.20;;;;;;10448555;28;20029;-58
2021/03/18 14:15:18;;;;;;;0.82;0.30;;;17.50;59.70;;;;;;10451049;28;20492;-57
2021/03/18 14:20:24;;;;;;;0.82;0.47;;;17.50;59.80;;;;;;10485300;28;20043;-59
2021/03/18 14:25:24;;;;;;;1.80;0.40;;;17.40;59.70;;;;;;10450394;28;20040;-57
2021/03/18 14:30:28;;;;;;;1.25;0.52;;;17.40;60.10;;;;;;10456393;28;20491;-59
2021/03/18 14:35:29;;;;;;;0.52;0.40;;;17.40;60.40;;;;;;10461529;28;20507;-59
2021/03/18 14:40:31;;;;;;;0.73;0.40;;;17.40;60.40;;;;;;10468589;28;20047;-60
2021/03/18 14:45:32;;;;;;;1.83;0.80;;;17.30;60.40;;;;;;10454790;28;20044;-59
2021/03/18 14:50:34;;;;;;;0.82;0.50;;;17.30;60.40;;;;;;10456051;28;20043;-59
2021/03/18 14:55:35;;;;;;;0.95;0.50;;;17.30;60.50;;;;;;10455960;28;20056;-60
2021/03/18 15:00:36;;;;;;;1.02;0.70;;;17.20;60.30;;;;;;10455742;28;20043;-59
2021/03/18 15:05:37;;;;;;;2.15;0.50;;;17.20;60.40;;;;;;10454215;28;20029;-59
2021/03/18 15:10:40;;;;;;;0.88;0.50;;;17.20;60.20;;;;;;10453900;28;20029;-60
2021/03/18 15:15:42;;;;;;;1.73;0.65;;;17.20;60.20;;;;;;10455000;28;20053;-60
2021/03/18 15:20:46;;;;;;;1.40;0.85;;;17.20;60.20;;;;;;10453393;28;20051;-60
2021/03/18 15:25:48;;;;;;;1.02;0.50;;;17.20;60.80;;;;;;10459806;28;20499;-57
2021/03/18 15:30:50;;;;;;;1.65;0.68;;;17.20;60.10;;;;;;10483518;28;20029;-59
2021/03/18 15:35:51;;;;;;;1.73;0.32;;;17.30;60.00;;;;;;10454715;28;20052;-59
2021/03/18 15:40:52;;;;;;;0.88;0.60;;;17.30;59.90;;;;;;10468585;28;20029;-59
2021/03/18 15:45:53;;;;;;;1.23;0.52;;;17.40;59.90;;;;;;10454013;28;20036;-60
2021/03/18 15:50:54;;;;;;;1.38;0.75;;;17.40;59.90;;;;;;10454398;28;20147;-59
2021/03/18 15:55:55;;;;;;;1.92;0.55;;;17.40;59.80;;;;;;10469491;28;20128;-60
2021/03/18 16:00:56;;;;;;;0.68;0.32;;;17.40;59.70;;;;;;10494695;28;20441;-59
2021/03/18 16:05:56;;;;;;;1.15;0.50;;;17.40;59.70;;;;;;10494671;28;20430;-59
2021/03/18 16:10:57;;;;;;;1.20;0.52;;;17.40;59.70;;;;;;10482044;28;20027;-59
2021/03/18 16:15:58;;;;;;;0.85;0.40;;;17.40;59.70;;;;;;10494017;28;20060;-59
2021/03/18 16:20:59;;;;;;;1.55;0.60;;;17.50;59.60;;;;;;10493907;28;20127;-59
2021/03/18 16:26:00;;;;;;;1.50;0.60;;;17.50;59.60;;;;;;10478271;28;20033;-58
2021/03/18 16:31:01;;;;;;;0.40;0.30;;;17.50;59.50;;;;;;10477559;28;20063;-60
2021/03/18 16:36:02;;;;;;;2.30;0.55;;;17.50;59.30;;;;;;10456504;28;20068;-60
2021/03/18 16:41:04;;;;;;;1.10;0.55;;;17.50;59.20;;;;;;10466693;28;20040;-60
2021/03/18 16:46:09;;;;;;;2.55;0.82;;;17.50;59.70;;;;;;10451480;28;20511;-60
2021/03/18 16:51:10;;;;;;;1.17;0.52;;;17.50;58.90;;;;;;10477547;28;20044;-60
2021/03/18 16:56:11;;;;;;;1.15;0.40;;;17.50;58.90;;;;;;10468120;28;20421;-61
2021/03/18 17:01:12;;;;;;;1.05;0.65;;;17.50;58.90;;;;;;10450601;28;20098;-61
2021/03/18 17:06:12;;;;;;;3.25;1.00;;;17.50;58.70;;;;;;10487579;28;20058;-61
2021/03/18 17:11:13;;;;;;;4.57;1.65;;;17.50;58.60;;;;;;10452401;28;20039;-58
2021/03/18 17:16:14;;;;;;;10.75;2.00;;;17.40;58.20;;;;;;10439411;28;20045;-61
2021/03/18 17:21:15;;;;;;;6.68;2.17;;;17.50;58.40;;;;;;10478015;28;20052;-60
2021/03/18 17:26:17;;;;;;;13.40;3.05;;;17.50;58.40;;;;;;10461746;28;20707;-60
2021/03/18 17:31:17;;;;;;;15.60;3.63;;;17.60;62.00;;;;;;10455565;28;20033;-61
2021/03/18 17:36:19;;;;;;;11.05;3.05;;;17.70;64.80;;;;;;10456735;28;20082;-63
2021/03/18 17:41:19;;;;;;;18.42;3.60;;;17.70;63.20;;;;;;10480396;28;20382;-60
2021/03/18 17:46:20;;;;;;;17.90;3.20;;;17.70;63.30;;;;;;10457493;28;20025;-59
2021/03/18 17:51:21;;;;;;;9.13;2.45;;;17.70;63.40;;;;;;10447972;28;20037;-61
2021/03/18 17:56:23;;;;;;;10.55;2.15;;;17.70;62.10;;;;;;10456461;28;20437;-61
2021/03/18 18:01:24;;;;;;;9.90;2.55;;;17.70;61.60;;;;;;10454844;28;20033;-61
2021/03/18 18:06:24;;;;;;;9.93;1.90;;;17.60;61.50;;;;;;10454506;28;20102;-61
2021/03/18 18:11:25;;;;;;;7.40;1.73;;;17.60;61.70;;;;;;10454500;28;20029;-60
2021/03/18 18:16:26;;;;;;;6.93;1.50;;;17.50;61.50;;;;;;10454410;28;20481;-60
2021/03/18 18:21:26;;;;;;;6.80;2.00;;;17.50;61.70;;;;;;10453791;28;20469;-60
2021/03/18 18:26:27;;;;;;;7.18;1.80;;;17.50;61.80;;;;;;10454526;28;20096;-60
2021/03/18 18:31:28;;;;;;;4.57;1.90;;;17.50;61.80;;;;;;10466326;28;20167;-61
2021/03/18 18:36:29;;;;;;;13.65;2.60;;;17.50;62.00;;;;;;10467254;28;20485;-62
2021/03/18 18:41:29;;;;;;;8.35;1.73;;;17.50;62.00;;;;;;10454227;28;20029;-61
2021/03/18 18:46:30;;;;;;;6.03;1.98;;;17.50;62.00;;;;;;10454267;28;20027;-61
2021/03/18 18:51:32;;;;;;;5.68;1.45;;;17.60;62.20;;;;;;10450353;28;20485;-61
2021/03/18 18:56:35;;;;;;;14.70;2.00;;;17.60;62.00;;;;;;10443409;28;20104;-61
2021/03/18 19:01:35;;;;;;;6.88;1.80;;;17.60;62.20;;;;;;10433732;28;20068;-59
2021/03/18 19:06:36;;;;;;;7.40;2.00;;;17.60;62.10;;;;;;10429585;28;20044;-60
2021/03/18 19:11:37;;;;;;;6.20;1.42;;;17.60;62.00;;;;;;10422553;28;20064;-60
2021/03/18 19:16:38;;;;;;;8.60;1.88;;;17.60;61.90;;;;;;10437323;28;20127;-60
2021/03/18 19:21:38;;;;;;;8.30;1.73;;;17.60;61.80;;;;;;10461023;28;20485;-60
2021/03/18 19:26:39;;;;;;;6.78;1.60;;;17.60;61.80;;;;;;10454905;28;20351;-59
2021/03/18 19:31:41;;;;;;;3.63;1.33;;;17.60;61.70;;;;;;10460712;28;20120;-60
2021/03/18 19:36:41;;;;;;;10.38;1.80;;;17.60;61.70;;;;;;10459478;28;20025;-59
2021/03/18 19:41:42;;;;;;;5.07;1.27;;;17.70;61.70;;;;;;10441813;28;20032;-60
2021/03/18 19:46:43;;;;;;;6.20;1.85;;;17.60;61.50;;;;;;10445176;28;20167;-59
2021/03/18 19:51:44;;;;;;;5.97;1.08;;;17.70;61.60;;;;;;10453305;28;20147;-60
2021/03/18 19:56:44;;;;;;;4.13;1.00;;;17.70;61.50;;;;;;10459214;28;20112;-59
2021/03/18 20:01:45;;;;;;;4.82;1.05;;;17.70;61.50;;;;;;10458366;28;20163;-60
2021/03/18 20:06:46;;;;;;;7.00;1.60;;;17.70;61.40;;;;;;10474506;28;20021;-59
2021/03/18 20:11:47;;;;;;;6.88;1.38;;;17.70;61.40;;;;;;10465808;28;20032;-59
2021/03/18 20:16:47;;;;;;;6.05;1.00;;;17.70;61.30;;;;;;10468453;28;20119;-59
2021/03/18 20:21:48;;;;;;;5.38;1.17;;;17.70;61.70;;;;;;10468441;28;20116;-59
2021/03/18 20:26:49;;;;;;;4.53;1.23;;;17.60;61.50;;;;;;10459662;28;20052;-60
2021/03/18 20:31:50;;;;;;;3.58;1.27;;;17.60;61.50;;;;;;10478449;28;20032;-60
2021/03/18 20:36:51;;;;;;;6.70;1.27;;;17.60;61.50;;;;;;10480750;28;20036;-59
2021/03/18 20:41:51;;;;;;;5.50;1.10;;;17.60;61.40;;;;;;10486612;28;20044;-60
2021/03/18 20:46:53;;;;;;;3.20;0.77;;;17.60;61.30;;;;;;10468531;28;20078;-60
2021/03/18 20:51:54;;;;;;;2.75;0.85;;;17.60;61.20;;;;;;10456712;28;20573;-60
2021/03/18 20:56:54;;;;;;;2.22;0.70;;;17.60;61.10;;;;;;10473004;28;20040;-60
2021/03/18 21:01:55;;;;;;;3.83;0.80;;;17.60;61.00;;;;;;10497708;28;20076;-60
2021/03/18 21:06:56;;;;;;;2.60;0.98;;;17.60;61.00;;;;;;10488552;28;20035;-59
2021/03/18 21:11:57;;;;;;;3.33;0.80;;;17.60;60.90;;;;;;10468827;28;20398;-60
2021/03/18 21:16:58;;;;;;;1.60;0.85;;;17.60;60.80;;;;;;10478225;28;20048;-60
2021/03/18 21:21:59;;;;;;;5.45;0.82;;;17.60;60.70;;;;;;10465682;28;20481;-60
2021/03/18 21:26:59;;;;;;;2.50;0.80;;;17.60;60.60;;;;;;10479966;28;20100;-60
2021/03/18 21:32:00;;;;;;;2.47;0.65;;;17.60;60.50;;;;;;10453302;28;20055;-61
2021/03/18 21:37:03;;;;;;;5.25;0.70;;;17.60;60.50;;;;;;10458506;28;20450;-60
2021/03/18 21:42:04;;;;;;;3.38;0.80;;;17.60;60.40;;;;;;10455667;28;20040;-60
2021/03/18 21:47:05;;;;;;;1.42;0.73;;;17.60;60.30;;;;;;10484699;28;20025;-60
2021/03/18 21:52:05;;;;;;;2.33;0.75;;;17.60;60.30;;;;;;10487513;28;20036;-60
2021/03/18 21:57:07;;;;;;;3.00;1.10;;;17.60;60.10;;;;;;10466602;28;20499;-60
2021/03/18 22:02:07;;;;;;;2.80;0.77;;;17.60;60.10;;;;;;10479993;28;20056;-60
2021/03/18 22:07:08;;;;;;;0.90;0.50;;;17.60;60.10;;;;;;10489748;28;20024;-61
2021/03/18 22:12:09;;;;;;;4.32;0.60;;;17.60;60.00;;;;;;10492653;28;20025;-60
2021/03/18 22:17:09;;;;;;;3.00;0.80;;;17.60;59.90;;;;;;10455521;28;20055;-59
2021/03/18 22:22:10;;;;;;;1.88;0.60;;;17.60;59.80;;;;;;10452874;28;20108;-60
2021/03/18 22:27:11;;;;;;;1.70;0.70;;;17.60;59.80;;;;;;10484406;28;20029;-60
2021/03/18 22:32:12;;;;;;;1.13;0.52;;;17.60;59.80;;;;;;10492025;28;20633;-59
2021/03/18 22:37:13;;;;;;;1.77;0.85;;;17.60;59.70;;;;;;10453945;28;20033;-60
2021/03/18 22:42:15;;;;;;;2.20;0.80;;;17.60;59.60;;;;;;10455948;28;20037;-60
2021/03/18 22:47:16;;;;;;;1.50;0.60;;;17.60;59.50;;;;;;10490251;28;20520;-60
2021/03/18 22:52:17;;;;;;;2.75;0.50;;;17.70;59.50;;;;;;10496179;28;20029;-60
2021/03/18 22:57:17;;;;;;;2.70;0.60;;;17.60;59.40;;;;;;10482004;28;20040;-60
2021/03/18 23:02:18;;;;;;;2.25;0.57;;;17.70;59.30;;;;;;10499101;28;20108;-60
2021/03/18 23:07:19;;;;;;;1.65;0.93;;;17.70;59.30;;;;;;10494056;28;20085;-60
2021/03/18 23:12:19;;;;;;;2.25;0.50;;;17.70;59.20;;;;;;10503701;28;20029;-61
2021/03/18 23:17:31;;;;;;;2.88;0.70;;;17.70;59.10;;;;;;10472463;28;20049;-61
2021/03/18 23:22:38;;;;;;;2.53;0.40;;;17.70;59.10;;;;;;10472200;28;20029;-60
2021/03/18 23:27:39;;;;;;;1.63;0.55;;;17.70;59.00;;;;;;10461372;28;20025;-60
2021/03/18 23:32:40;;;;;;;2.03;1.10;;;17.70;59.00;;;;;;10461738;28;20595;-62
2021/03/18 23:37:45;;;;;;;1.80;0.63;;;17.70;59.00;;;;;;10477391;28;20085;-60
2021/03/18 23:42:45;;;;;;;0.88;0.32;;;17.70;59.50;;;;;;10461005;28;20037;-59
2021/03/18 23:47:46;;;;;;;1.73;0.30;;;17.70;58.80;;;;;;10481001;28;20033;-60
2021/03/18 23:52:47;;;;;;;1.65;0.50;;;17.70;58.80;;;;;;10460673;28;20118;-59
2021/03/18 23:57:50;;;;;;;2.00;0.70;;;17.80;58.80;;;;;;10497666;28;20036;-60
